sim
Sign-in with your pilot id or email,
or register
Callsign
Passwort

Schedule Details

Flight Number: OEC538
Departure: Stockholm Arlanda Airport (ESSA) at Time
Arrival: Munich Airport (EDDM) at Time

Weather Information
Getting current METAR information for ESSA 240150Z 15005KT 9000 BR NSC 10/10 Q1001 TEMPO 1000 BCFG
Getting current METAR information for EDDM 240150Z 22002KT CAVOK 10/10 Q1009 NOSIG

Schedule Frequency

Route Map